• Join FlightAware (Why Join?)
  • Login
  • US Flag 
06:26AM EST


 

Airport Tracker/Info


-or-


 

Live Flight TrackerFlight Track Log ✈ EJA929 ✈ 28-Feb-2014 ✈ KPBI - KJAX

Flight Track Log - Related Links

Times and Time Zones

All times are in EST time to prevent confusion due to time zone crossing. See the EJA929 flight status page for this flight to view local times or setup timezone preferences in your user account.

Time Position Orientation Groundspeed Altitude Reporting Facility
EST Latitude Longitude Course Direction KTS MPH feet Rate Location/Type
09:04AM 26.6819 -80.1697 336° Northwest 231 266 4,300  Level Miami Center
09:05AM 26.7033 -80.2425 288° West 261 300 8,300 3,060 Climbing Miami Center
09:06AM 26.7647 -80.2908 325° Northwest 269 310 10,500 1,800 Climbing Miami Center
09:07AM 26.8456 -80.3233 340° North 294 338 12,000 1,800 Climbing Miami Center
09:08AM 26.9342 -80.3656 337° Northwest 323 372 14,200 2,160 Climbing Miami Center
09:09AM 27.0375 -80.4131 338° Northwest 356 410 16,400 1,920 Climbing Miami Center
09:10AM 27.0618 -80.4225 336° Northwest  Level FlightAware Approximate
09:10AM 27.1364 -80.4628 336° Northwest 380 437 18,100  Level Miami Center
09:11AM 27.2247 -80.5261 327° Northwest 375 432 20,600 2,400 Climbing Miami Center
09:12AM 27.3067 -80.5919 324° Northwest 370 426 22,900 1,200 Climbing Miami Center
09:13AM 27.4072 -80.6536 331° Northwest 375 432 23,000 1,020 Climbing Miami Center
09:14AM 27.5122 -80.7133 333° Northwest 402 463 25,000 2,400 Climbing Miami Center
09:15AM 27.6128 -80.7753 331° Northwest 408 470 27,900 1,980 Climbing Miami Center
09:16AM 27.7053 -80.8278 333° Northwest 413 475 29,000 540 Climbing Miami Center
09:17AM 27.8181 -80.8950 332° Northwest 429 494 29,000  Level Miami Center
09:18AM 27.9458 -80.9558 337° Northwest 465 535 29,000  Level Miami Center
09:19AM 28.0756 -81.0172 337° Northwest 486 559 29,000  Level Miami Center
09:20AM 28.2094 -81.0808 337° Northwest 512 589 29,000  Level Miami Center
09:22AM 28.4414 -81.1953 337° Northwest 518 596 29,000 -120 Level Jacksonville Center
09:23AM 28.5672 -81.2544 338° Northwest 506 582 28,700 -960 Descending Jacksonville Center
09:24AM 28.6953 -81.3164 337° Northwest 496 571 27,100 -1,440 Descending Jacksonville Center
09:25AM 28.8253 -81.3664 341° North 496 571 25,900 -1,320 Descending Jacksonville Center
09:26AM 28.9592 -81.3808 355° North 489 563 24,500 -1,200 Descending Jacksonville Center
09:27AM 29.0886 -81.3956 354° North 478 550 23,500 -1,020 Descending Jacksonville Center
09:28AM 29.2100 -81.4081 355° North 457 526 22,500 -780 Descending Jacksonville Center
09:29AM 29.3067 -81.4781 328° Northwest 419 482 22,000 -360 Descending Jacksonville Center
09:30AM 29.4119 -81.5481 330° Northwest 414 476 21,800 -900 Descending Jacksonville Center
09:30AM 29.4558 -81.5736 333° Northwest 451 519 20,700 -2,520 Descending Jacksonville Center
09:31AM 29.5189 -81.6181 328° Northwest 433 498 19,300 -2,700 Descending Jacksonville Center
09:31AM 29.5736 -81.6461 336° Northwest 440 506 18,000 -2,340 Descending Jacksonville Center
09:32AM 29.6342 -81.6644 345° North 433 498 17,000 -1,440 Descending Jacksonville Center
09:32AM 29.7011 -81.6564 North 419 482 16,400 -1,020 Descending Jacksonville Center
09:33AM 29.7531 -81.6533 North 416 479 16,000 -360 Descending Jacksonville Center
09:33AM 29.8094 -81.6478 North 419 482 16,100 -300 Climbing Jacksonville Center
09:34AM 29.8658 -81.6447 North 410 472 15,700 -1,980 Descending Jacksonville Center
09:35AM 29.9431 -81.6367 North 418 481 13,900 -2,640 Descending Jacksonville Center
09:35AM 29.9825 -81.6314 North 405 466 13,100 -2,640 Descending Jacksonville Center
09:35AM 30.0453 -81.6256 North 408 470 11,500 -2,520 Descending Jacksonville Center
09:36AM 30.0953 -81.6225 North 405 466 10,600 -1,140 Descending Jacksonville Center
09:36AM 30.1494 -81.6169 North 327 376 10,400 -420 Descending Jacksonville Center
09:37AM 30.1850 -81.6142 North 369 425 10,200 -1,380 Descending Jacksonville Center
09:37AM 30.2247 -81.6114 North 259 298 9,000 -1,800 Descending Jacksonville Center
09:38AM 30.2558 -81.6083 North 306 352 8,400 -2,100 Descending Jacksonville Center
09:39AM 30.2914 -81.6056 North 219 252 6,900 -2,340 Descending Jacksonville Center
09:39AM 30.3164 -81.6053 North 244 281 6,100 -1,980 Descending Jacksonville Center
09:40AM 30.3558 -81.5878 21° North 219 252 4,700 -1,620 Descending Jacksonville Center
09:40AM 30.3642 -81.5806 37° Northeast 207 238 4,500 -1,620 Descending Jacksonville Center
09:41AM 30.4056 -81.5486 34° Northeast 223 257 3,100 -1,380 Descending Jacksonville Center
09:42AM 30.4722 -81.5406 North 206 237 2,000 -840 Descending Jacksonville Center
09:43AM 30.5144 -81.5711 328° Northwest 194 223 1,500 -600 Descending Jacksonville Center
09:44AM 30.5211 -81.6267 278° West 184 212 1,000 -720 Descending Jacksonville Center
09:45AM 30.5069 -81.6678 248° West 115 132 200 -840 Descending Jacksonville Center
09:47AM 30.4833 -81.6833 261° West  Level FlightAware Approximate